Latest Weather Observations for Puckapunyal-Lyon Hill (Defence)

IDV60801

Issued at 9:52 pm EST Monday 6 July 2020 (issued every 10 minutes, with the page automatically refreshed every 10 minutes)

About weather observations | Map of weather stations | Latest weather observations for VIC | Other Formats
Station Details ID: 088167 Name: PUCKAPUNYAL LYON HILL (DEFENCE) Lat: -36.94 Lon: 145.05 Height: 193.0 m
Data from the previous 72 hours. | See also: Recent months at Puckapunyal-Lyon Hill (Defence)
Date/Time
EST
Temp
°C
App
Temp
°C
Dew
Point
°C
Rel
Hum
%
Delta-T
°C
Wind Press
QNH
hPa
Press
MSL
hPa
Rain since
9am
mm
Dir  Spd
km/h
Gust
km/h
Spd
kts
Gust
kts
06/09:30pm 9.4 7.0 7.2 86 1.0 SSW 9 13 5 7 - - 0.0
06/09:00pm 9.9 7.5 7.2 83 1.3 SSW 9 13 5 7 - - 0.0
06/08:30pm 10.2 7.9 7.3 82 1.4 SSW 9 13 5 7 - - 0.0
06/08:00pm 10.3 8.3 7.2 81 1.5 SSW 7 13 4 7 - - 0.0
06/07:30pm 10.5 8.1 7.0 79 1.7 SSW 9 15 5 8 - - 0.0
06/07:00pm 10.5 8.1 7.0 79 1.7 S 9 13 5 7 - - 0.0
06/06:30pm 10.5 8.1 7.0 79 1.7 SSW 9 15 5 8 - - 0.0
06/06:00pm 10.7 8.3 7.2 79 1.7 S 9 15 5 8 - - 0.0
06/05:30pm 10.9 8.2 7.4 79 1.7 S 11 17 6 9 - - 0.0
06/05:00pm 11.1 8.5 7.6 79 1.7 S 11 19 6 10 - - 0.0
06/04:30pm 11.2 8.9 7.5 78 1.8 S 9 13 5 7 - - 0.0
06/04:00pm 11.4 8.7 7.5 77 1.9 S 11 15 6 8 - - 0.0
06/03:30pm 12.0 9.3 7.5 74 2.2 SSE 11 20 6 11 - - 0.0
06/03:00pm 11.9 8.6 6.4 69 2.6 SSW 13 22 7 12 - - 0.0
06/02:30pm 11.7 9.0 7.2 74 2.2 S 11 19 6 10 - - 0.0
06/02:00pm 11.7 8.7 7.8 77 1.9 S 13 19 7 10 - - 0.0
06/01:30pm 11.4 9.2 7.7 78 1.8 SSW 9 19 5 10 - - 0.0
06/01:00pm 11.4 8.1 8.1 80 1.6 S 15 20 8 11 - - 0.0
06/12:30pm 11.0 9.0 8.6 85 1.2 S 9 17 5 9 - - 0.0
06/12:00pm 10.2 7.7 8.0 86 1.1 S 11 19 6 10 - - 0.0
06/11:30am 9.9 7.3 7.7 86 1.1 S 11 17 6 9 - - 0.0
06/11:00am 9.8 6.3 7.2 84 1.2 SSW 15 24 8 13 - - 0.0
06/10:30am 9.7 6.6 7.1 84 1.2 S 13 20 7 11 - - 0.0
06/10:00am 9.8 6.7 7.1 83 1.3 SSW 13 19 7 10 - - 0.0
06/09:30am 9.4 6.1 6.5 82 1.4 S 13 20 7 11 - - 0.0
06/09:00am 9.2 6.3 6.6 84 1.2 S 11 20 6 11 - - 0.2
06/08:30am 8.3 5.4 6.6 89 0.8 S 11 15 6 8 - - 0.2
06/08:00am 7.8 4.9 6.3 90 0.7 SSW 11 17 6 9 - - 0.2
06/07:30am 7.8 4.5 6.3 90 0.7 SSW 13 20 7 11 - - 0.2
06/07:00am 7.1 4.9 6.2 94 0.4 SW 7 13 4 7 - - 0.2
06/06:30am 6.8 4.2 6.2 96 0.3 SW 9 13 5 7 - - 0.2
06/06:00am 7.5 6.3 6.6 94 0.4 SW 2 6 1 3 - - 0.2
06/05:30am 7.8 5.3 6.7 93 0.5 SSW 9 17 5 9 - - 0.2
06/05:00am 7.8 5.8 6.4 91 0.6 SW 6 9 3 5 - - 0.2
06/04:30am 8.1 6.6 6.6 90 0.7 SW 4 6 2 3 - - 0.2
06/04:00am 8.1 5.6 6.6 90 0.7 SSW 9 15 5 8 - - 0.2
06/03:30am 8.0 5.5 6.5 90 0.7 SW 9 15 5 8 - - 0.2
06/03:00am 8.3 6.2 6.8 90 0.7 SSW 7 13 4 7 - - 0.2
06/02:30am 8.4 5.2 6.9 90 0.7 SSW 13 19 7 10 - - 0.2
06/02:00am 8.4 6.0 7.2 92 0.6 SSW 9 15 5 8 - - 0.2
06/01:30am 8.6 6.6 7.1 90 0.7 SSW 7 11 4 6 - - 0.2
06/01:00am 8.4 6.6 7.2 92 0.6 SSW 6 9 3 5 - - 0.2
06/12:30am 8.5 5.8 7.3 92 0.6 S 11 17 6 9 - - 0.2
06/12:00am 8.9 6.7 7.7 92 0.6 S 9 15 5 8 - - 0.2
 
Date/Time
EST
Temp
°C
App
Temp
°C
Dew
Point
°C
Rel
Hum
%
Delta-T
°C
Wind Press
QNH
hPa
Press
MSL
hPa
Rain since
9am
mm
Dir  Spd
km/h
Gust
km/h
Spd
kts
Gust
kts
05/11:30pm 9.2 5.9 8.1 93 0.5 SSW 15 20 8 11 - - 0.2
05/11:00pm 9.1 5.5 8.5 96 0.3 SSW 17 28 9 15 - - 0.2
05/10:30pm 9.1 7.5 8.6 97 0.2 SW 7 11 4 6 - - 0.0
05/10:00pm 9.3 7.2 8.4 94 0.4 SW 9 11 5 6 - - 0.0
05/09:30pm 9.4 7.2 7.8 90 0.8 SW 9 11 5 6 - - 0.0
05/09:00pm 9.6 7.0 7.7 88 0.9 SW 11 13 6 7 - - 0.0
05/08:30pm 9.4 7.7 7.5 88 0.9 WSW 6 7 3 4 - - 0.0
05/08:00pm 9.3 7.6 7.6 89 0.8 WSW 6 9 3 5 - - 0.0
05/07:30pm 9.6 7.7 7.4 86 1.1 SW 7 13 4 7 - - 0.0
05/07:00pm 9.4 7.0 7.2 86 1.0 SW 9 13 5 7 - - 0.0
05/06:30pm 9.5 7.6 6.8 83 1.3 SSW 6 9 3 5 - - 0.0
05/06:00pm 10.0 8.0 7.3 83 1.3 S 7 13 4 7 - - 0.0
05/05:30pm 10.4 8.1 7.3 81 1.5 SSW 9 15 5 8 - - 0.0
05/05:00pm 10.5 7.7 7.0 79 1.7 SSW 11 19 6 10 - - 0.0
05/04:30pm 10.5 7.7 7.0 79 1.7 S 11 20 6 11 - - 0.0
05/04:00pm 10.7 7.2 7.0 78 1.8 S 15 24 8 13 - - 0.0
05/03:30pm 11.2 9.0 7.9 80 1.6 SSW 9 24 5 13 - - 0.0
05/03:00pm 11.3 8.8 8.3 82 1.5 S 11 17 6 9 - - 0.0
05/02:30pm 11.4 8.1 8.1 80 1.6 S 15 26 8 14 - - 0.0
05/02:00pm 11.7 8.6 7.4 75 2.1 SSW 13 22 7 12 - - 0.0
05/01:30pm 12.1 9.1 7.8 75 2.1 SSW 13 20 7 11 - - 0.0
05/01:00pm 11.7 8.2 7.0 73 2.3 S 15 22 8 12 - - 0.0
05/12:30pm 11.6 8.0 6.7 72 2.4 S 15 24 8 13 - - 0.0
05/12:00pm 11.8 8.6 6.7 71 2.5 S 13 20 7 11 - - 0.0
05/11:30am 12.2 9.3 6.7 69 2.7 SSW 11 19 6 10 - - 0.0
05/11:00am 10.8 8.8 6.4 74 2.1 W 6 9 3 5 - - 0.0
05/10:30am 9.8 8.2 6.3 79 1.6 WSW 4 6 2 3 - - 0.0
05/10:00am 9.4 7.8 6.5 82 1.4 WSW 4 7 2 4 - - 0.0
05/09:30am 9.2 7.3 6.5 83 1.3 SW 6 13 3 7 - - 0.0
05/09:00am 7.6 5.4 6.2 91 0.6 WNW 7 7 4 4 - - 0.2
05/08:30am 6.5 4.7 5.6 94 0.4 W 4 6 2 3 - - 0.2
05/08:00am 6.3 4.1 5.3 93 0.4 WSW 6 7 3 4 - - 0.2
05/07:30am 6.3 3.6 5.7 96 0.3 WSW 9 9 5 5 - - 0.2
05/07:00am 5.4 3.1 5.0 97 0.2 WNW 6 7 3 4 - - 0.2
05/06:30am 5.4 3.1 4.8 96 0.3 NW 6 9 3 5 - - 0.2
05/06:00am 5.7 3.8 5.0 95 0.3 NW 4 6 2 3 - - 0.2
05/05:30am 6.7 4.9 5.5 92 0.5 WNW 4 6 2 3 - - 0.2
05/05:00am 6.5 4.2 4.7 88 0.8 WSW 6 9 3 5 - - 0.2
05/04:30am 7.7 5.4 5.5 86 1.0 SW 7 11 4 6 - - 0.2
05/04:00am 8.2 5.9 5.7 84 1.1 SSW 7 11 4 6 - - 0.2
05/03:30am 8.6 6.0 5.9 83 1.2 SSW 9 13 5 7 - - 0.2
05/03:00am 9.2 7.1 6.5 83 1.3 SSW 7 13 4 7 - - 0.2
05/02:30am 9.5 7.1 6.8 83 1.3 SSW 9 19 5 10 - - 0.2
05/02:00am 9.8 6.7 7.1 83 1.3 SSW 13 20 7 11 - - 0.2
05/01:30am 10.2 6.8 7.8 85 1.2 SSW 15 28 8 15 - - 0.2
05/01:00am 10.0 7.0 7.8 86 1.1 SSW 13 19 7 10 - - 0.2
05/12:30am 8.7 6.8 7.6 93 0.5 WSW 7 11 4 6 - - 0.2
05/12:00am 8.5 5.9 7.6 94 0.4 W 11 13 6 7 - - 0.2
 
Date/Time
EST
Temp
°C
App
Temp
°C
Dew
Point
°C
Rel
Hum
%
Delta-T
°C
Wind Press
QNH
hPa
Press
MSL
hPa
Rain since
9am
mm
Dir  Spd
km/h
Gust
km/h
Spd
kts
Gust
kts
04/11:30pm 8.8 6.3 8.0 95 0.4 W 11 13 6 7 - - 0.2
04/11:00pm 8.8 6.7 8.4 97 0.2 W 9 9 5 5 - - 0.2
04/10:30pm 8.8 7.1 8.2 96 0.3 WNW 7 9 4 5 - - 0.2
04/10:00pm 9.1 7.6 8.3 95 0.4 WNW 6 7 3 4 - - 0.0
04/09:30pm 9.1 7.6 8.5 96 0.3 WNW 6 7 3 4 - - 0.0
04/09:00pm 9.2 7.2 8.6 96 0.3 WNW 9 11 5 6 - - 0.0
04/08:30pm 9.2 7.6 8.6 96 0.3 WNW 7 9 4 5 - - 0.0
04/08:00pm 9.3 7.7 8.7 96 0.3 NW 7 7 4 4 - - 0.0
04/07:30pm 9.4 7.8 8.6 95 0.4 W 7 9 4 5 - - 0.0
04/07:00pm 9.5 7.9 8.6 94 0.4 WNW 7 9 4 5 - - 0.0
04/06:30pm 9.7 7.7 8.6 93 0.5 W 9 13 5 7 - - 0.0
04/06:00pm 9.8 7.8 8.6 92 0.6 WNW 9 11 5 6 - - 0.0
04/05:30pm 10.1 6.9 8.4 89 0.8 WNW 15 20 8 11 - - 0.0
04/05:00pm 10.2 7.3 8.3 88 0.9 W 13 19 7 10 - - 0.0
04/04:30pm 10.7 7.0 7.9 83 1.4 WNW 17 22 9 12 - - 0.0
04/04:00pm 10.6 6.5 8.0 84 1.3 W 19 22 10 12 - - 0.0
04/03:30pm 10.7 6.5 7.6 81 1.5 W 19 28 10 15 - - 0.0
04/03:00pm 11.1 6.8 7.8 80 1.6 W 20 24 11 13 - - 0.0
04/02:30pm 11.5 7.4 7.8 78 1.8 WNW 19 24 10 13 - - 0.0
04/02:00pm 11.8 7.7 7.7 76 2.0 W 19 26 10 14 - - 0.0
04/01:30pm 11.5 8.7 8.5 82 1.5 WNW 13 19 7 10 - - 0.0
04/01:00pm 10.6 6.7 7.3 80 1.6 WNW 17 22 9 12 - - 0.0
04/12:30pm 9.9 5.9 6.8 81 1.5 W 17 20 9 11 - - 0.0
04/12:00pm 9.3 5.7 6.6 83 1.3 W 15 19 8 10 - - 0.0
04/11:30am 9.2 5.6 6.6 84 1.2 WNW 15 20 8 11 - - 0.0
04/11:00am 7.6 4.2 5.9 89 0.8 W 13 17 7 9 - - 0.0
04/10:30am 6.8 3.0 5.6 92 0.5 W 15 19 8 10 - - 0.0
04/10:00am 6.2 2.8 5.8 97 0.2 WNW 13 17 7 9 - - 0.0
04/09:30am 5.1 1.5 4.8 98 0.1 WNW 13 17 7 9 - - 0.0
04/09:00am 4.6 0.8 3.9 95 0.3 WNW 13 19 7 10 - - 8.4
04/08:30am 3.5 0.2 2.6 94 0.4 WNW 9 9 5 5 - - 8.4
04/08:00am 2.8 -0.2 1.8 93 0.4 WNW 7 9 4 5 - - 8.4
04/07:30am 1.9 -1.6 1.0 94 0.3 WNW 9 11 5 6 - - 8.4
04/07:00am 3.4 1.0 1.9 90 0.6 W 4 6 2 3 - - 8.4
04/06:30am 4.1 1.3 2.1 87 0.8 SSW 6 7 3 4 - - 8.4
04/06:00am 2.7 -0.2 1.7 93 0.4 WNW 6 7 3 4 - - 8.4
04/05:30am 3.5 1.4 1.9 89 0.6 W 2 2 1 1 - - 8.4
04/05:00am 3.4 0.6 2.1 91 0.5 W 6 7 3 4 - - 8.4
04/04:30am 3.4 1.1 2.5 94 0.4 WSW 4 6 2 3 - - 8.4
04/04:00am 3.1 0.7 2.2 94 0.4 NW 4 6 2 3 - - 8.4
04/03:30am 4.7 1.1 3.0 89 0.7 SW 11 13 6 7 - - 8.4
04/03:00am 4.3 0.8 3.3 93 0.4 WSW 11 13 6 7 - - 8.4
04/02:30am 3.5 0.6 2.6 94 0.4 W 7 9 4 5 - - 8.4
04/02:00am 4.8 2.0 3.1 89 0.7 SW 7 9 4 5 - - 8.4
04/01:30am 4.2 1.0 3.3 94 0.4 WSW 9 13 5 7 - - 8.4
04/01:00am 3.3 0.5 2.3 93 0.4 WSW 6 9 3 5 - - 8.4
04/12:30am 3.3 0.5 2.0 91 0.5 W 6 7 3 4 - - 8.4
04/12:00am 5.3 2.1 2.8 84 1.0 SSW 9 13 5 7 - - 8.4
 
Date/Time
EST
Temp
°C
App
Temp
°C
Dew
Point
°C
Rel
Hum
%
Delta-T
°C
Wind Press
QNH
hPa
Press
MSL
hPa
Rain since
9am
mm
Dir  Spd
km/h
Gust
km/h
Spd
kts
Gust
kts
03/11:30pm 5.2 1.2 2.9 85 1.0 SW 13 17 7 9 - - 8.4
03/11:00pm 4.1 1.2 2.5 89 0.6 W 7 11 4 6 - - 8.4
03/10:30pm 3.9 0.9 1.8 86 0.8 WNW 7 9 4 5 - - 8.4
03/10:00pm 5.9 1.9 3.1 82 1.2 SSW 13 20 7 11 - - 8.4

Other formats

Comma delimited format used in spreadsheet applications
http://www.bom.gov.au/fwo/IDV60801/IDV60801.94858.axf

JavaScript Object Notation format (JSON) in row-major order
http://www.bom.gov.au/fwo/IDV60801/IDV60801.94858.json

Data quality

Most of these data are generated automatically and are frequently updated. Quality checks on data are not normally performed. It is possible for incorrect values to appear. Refer to information at About Latest Weather Observations and please check the disclaimer before using these data.